Time;durP1;ratioP1;P1;durP2;ratioP2;P2;SDS_P1;SDS_P2;PMS_P1;PMS_P2;Temp;Humidity;BMP_temperature;BMP_pressure;BME280_temperature;BME280_humidity;BME280_pressure;Samples;Min_cycle;Max_cycle;Signal;HPM_P1;HPM_P2
2022/12/20 00:01:23;;;;;;;8.55;5.30;;;9.00;99.90;;;;;;5051773;28;20132;-50
2022/12/20 00:03:50;;;;;;;10.45;5.15;;;9.00;99.90;;;;;;5051578;28;20075;-52
2022/12/20 00:06:17;;;;;;;9.40;5.78;;;9.00;99.90;;;;;;5050246;28;20056;-49
2022/12/20 00:08:45;;;;;;;8.73;5.50;;;8.90;99.90;;;;;;5050504;28;20049;-50
2022/12/20 00:11:12;;;;;;;8.15;4.82;;;8.90;99.90;;;;;;5052980;28;20415;-49
2022/12/20 00:13:40;;;;;;;11.45;5.72;;;8.90;99.90;;;;;;5051727;28;20106;-50
2022/12/20 00:16:07;;;;;;;9.77;5.30;;;8.90;99.90;;;;;;5049283;28;20057;-48
2022/12/20 00:18:35;;;;;;;9.02;5.00;;;8.90;99.90;;;;;;5052185;28;20106;-51
2022/12/20 00:21:02;;;;;;;7.03;4.85;;;8.90;99.90;;;;;;5050173;28;20138;-48
2022/12/20 00:23:29;;;;;;;11.07;5.10;;;8.90;99.90;;;;;;5053035;28;20080;-50
2022/12/20 00:26:01;;;;;;;6.60;4.85;;;8.90;99.90;;;;;;5050934;28;20143;-47
2022/12/20 00:28:28;;;;;;;8.20;5.00;;;8.90;99.90;;;;;;5051773;28;20488;-46
2022/12/20 00:30:56;;;;;;;9.05;4.38;;;8.90;99.90;;;;;;5052573;28;20072;-50
2022/12/20 00:33:23;;;;;;;12.55;4.90;;;8.90;99.90;;;;;;5052784;28;20489;-47
2022/12/20 00:35:49;;;;;;;8.68;4.75;;;8.90;99.90;;;;;;5050764;28;20473;-50
2022/12/20 00:38:16;;;;;;;8.30;4.95;;;8.90;99.90;;;;;;5050695;28;20400;-48
2022/12/20 00:40:43;;;;;;;8.38;4.70;;;9.00;99.90;;;;;;5053291;28;20092;-49
2022/12/20 00:43:10;;;;;;;8.55;4.30;;;9.00;99.90;;;;;;5051537;28;20460;-47
2022/12/20 00:45:37;;;;;;;8.93;4.90;;;9.10;99.90;;;;;;5052082;28;20102;-49
2022/12/20 00:48:06;;;;;;;6.97;4.70;;;9.10;99.90;;;;;;5050473;28;20094;-50
2022/12/20 00:50:32;;;;;;;8.95;4.60;;;9.20;99.90;;;;;;5052140;28;20451;-48
2022/12/20 00:52:59;;;;;;;11.65;4.93;;;9.10;99.90;;;;;;5051388;28;20084;-51
2022/12/20 00:55:26;;;;;;;7.72;4.32;;;9.20;99.90;;;;;;5051346;28;20428;-52
2022/12/20 00:57:53;;;;;;;8.35;4.13;;;9.20;99.90;;;;;;5052045;28;20088;-47
2022/12/20 01:00:20;;;;;;;11.52;4.75;;;9.20;99.90;;;;;;5052157;28;20143;-45
2022/12/20 01:02:47;;;;;;;8.90;4.78;;;9.10;99.90;;;;;;5048712;28;20076;-50
2022/12/20 01:05:15;;;;;;;8.35;4.53;;;9.10;99.90;;;;;;5040772;28;20093;-51
2022/12/20 01:07:42;;;;;;;6.43;4.35;;;9.10;99.90;;;;;;5050504;28;20091;-50
2022/12/20 01:10:10;;;;;;;6.43;4.57;;;9.10;99.90;;;;;;5049776;28;20091;-47
2022/12/20 01:12:37;;;;;;;10.48;4.55;;;9.10;99.90;;;;;;5051918;28;20059;-51
2022/12/20 01:15:05;;;;;;;10.38;5.05;;;9.10;99.90;;;;;;5050709;28;20057;-49
2022/12/20 01:17:31;;;;;;;6.95;4.60;;;9.00;99.90;;;;;;5051722;28;20049;-50
2022/12/20 01:19:59;;;;;;;7.18;4.40;;;9.10;99.90;;;;;;5051467;28;22021;-51
2022/12/20 01:22:27;;;;;;;7.05;4.43;;;9.10;99.90;;;;;;5051569;28;20095;-51
2022/12/20 01:24:53;;;;;;;10.30;4.30;;;9.20;99.90;;;;;;5051094;28;20076;-51
2022/12/20 01:27:20;;;;;;;8.85;4.32;;;9.20;99.90;;;;;;5050591;28;20140;-50
2022/12/20 01:29:47;;;;;;;10.23;4.47;;;9.10;99.90;;;;;;5048501;28;20128;-48
2022/12/20 01:32:14;;;;;;;7.18;4.57;;;9.10;99.90;;;;;;5039227;28;20497;-50
2022/12/20 01:34:41;;;;;;;6.90;4.13;;;9.10;99.90;;;;;;5047474;28;20084;-48
2022/12/20 01:37:07;;;;;;;10.05;4.43;;;9.10;99.90;;;;;;5051204;28;20130;-46
2022/12/20 01:39:36;;;;;;;8.13;4.30;;;9.10;99.90;;;;;;5051449;28;20472;-50
2022/12/20 01:42:02;;;;;;;7.10;4.18;;;9.20;99.90;;;;;;5051239;28;20045;-49
2022/12/20 01:44:52;;;;;;;9.40;4.03;;;9.10;99.90;;;;;;5050267;28;20092;-50
2022/12/20 01:47:19;;;;;;;9.40;4.43;;;9.10;99.90;;;;;;5050142;28;20057;-49
2022/12/20 01:49:47;;;;;;;7.57;3.90;;;9.10;99.90;;;;;;5051263;28;20045;-51
2022/12/20 01:52:15;;;;;;;7.63;4.03;;;9.10;99.90;;;;;;5048011;28;20505;-48
2022/12/20 01:54:44;;;;;;;9.20;4.43;;;9.10;99.90;;;;;;5050701;28;20445;-49
2022/12/20 01:57:14;;;;;;;9.93;4.90;;;9.10;99.90;;;;;;5050006;28;20049;-48
2022/12/20 01:59:41;;;;;;;7.57;4.82;;;9.10;99.90;;;;;;5049132;28;20136;-48
2022/12/20 02:02:10;;;;;;;6.38;4.22;;;9.10;99.90;;;;;;5047434;28;20090;-49
2022/12/20 02:04:37;;;;;;;6.93;4.35;;;9.10;99.90;;;;;;5046133;28;20132;-50
2022/12/20 02:07:04;;;;;;;7.68;4.07;;;9.10;99.90;;;;;;5050092;28;20524;-50
2022/12/20 02:09:31;;;;;;;10.05;4.45;;;9.10;99.90;;;;;;5050168;28;20053;-49
2022/12/20 02:12:06;;;;;;;6.65;4.22;;;9.10;99.90;;;;;;5049566;28;20084;-49
2022/12/20 02:14:41;;;;;;;9.43;4.25;;;9.20;99.90;;;;;;5051647;28;20132;-46
2022/12/20 02:17:10;;;;;;;6.55;3.80;;;9.20;99.90;;;;;;5042497;28;20139;-49
2022/12/20 02:19:50;;;;;;;7.30;3.83;;;9.20;99.90;;;;;;5052442;28;20428;-48
2022/12/20 02:22:23;;;;;;;6.80;4.10;;;9.20;99.90;;;;;;5051853;28;20103;-47
2022/12/20 02:25:12;;;;;;;7.95;4.07;;;9.20;99.90;;;;;;5035554;28;20092;-47
2022/12/20 02:27:47;;;;;;;6.38;3.97;;;9.20;99.90;;;;;;5055437;28;20053;-49
2022/12/20 02:30:16;;;;;;;7.00;3.90;;;9.30;99.90;;;;;;5052215;28;20106;-47
2022/12/20 02:32:47;;;;;;;6.85;3.42;;;9.40;99.90;;;;;;5051700;28;20179;-50
2022/12/20 02:35:15;;;;;;;7.55;4.20;;;9.40;99.90;;;;;;5053553;28;20107;-50
2022/12/20 02:37:49;;;;;;;9.60;4.43;;;9.40;99.90;;;;;;5051499;28;20053;-50
2022/12/20 02:40:17;;;;;;;5.45;3.58;;;9.40;99.90;;;;;;5053015;28;20141;-48
2022/12/20 02:42:44;;;;;;;7.78;3.50;;;9.40;99.90;;;;;;5055049;28;20503;-53
2022/12/20 02:45:16;;;;;;;8.68;4.03;;;9.40;99.90;;;;;;5052506;28;20087;-52
2022/12/20 02:47:49;;;;;;;7.05;3.90;;;9.40;99.90;;;;;;5052602;28;20508;-56
2022/12/20 02:50:18;;;;;;;6.75;4.20;;;9.50;99.90;;;;;;5050964;28;20139;-60
2022/12/20 02:52:45;;;;;;;11.07;4.18;;;9.40;99.90;;;;;;5055044;28;20081;-63
2022/12/20 02:55:12;;;;;;;8.80;4.35;;;9.40;99.90;;;;;;5052731;28;20549;-61
2022/12/20 02:57:42;;;;;;;9.35;4.20;;;9.40;99.90;;;;;;5053270;28;20044;-50
2022/12/20 03:00:10;;;;;;;8.48;4.45;;;9.40;99.90;;;;;;5054446;28;20076;-49
2022/12/20 03:05:19;;;;;;;7.63;4.28;;;9.30;99.90;;;;;;5043510;28;20504;-67
2022/12/20 03:07:45;;;;;;;8.68;4.70;;;9.30;99.90;;;;;;5052056;28;20053;-64
2022/12/20 03:10:12;;;;;;;6.82;4.25;;;9.30;99.90;;;;;;5052700;28;20506;-62
2022/12/20 03:12:39;;;;;;;10.52;4.93;;;9.30;99.90;;;;;;5051904;28;20080;-63
2022/12/20 03:15:08;;;;;;;6.43;4.30;;;9.30;99.90;;;;;;5053085;28;20092;-56
2022/12/20 03:17:35;;;;;;;9.23;4.70;;;9.30;99.90;;;;;;5054512;28;20085;-61
2022/12/20 03:20:01;;;;;;;10.88;4.60;;;9.20;99.90;;;;;;5053171;28;20102;-58
2022/12/20 03:22:30;;;;;;;7.53;4.65;;;9.30;99.90;;;;;;5052299;28;20080;-59
2022/12/20 03:24:57;;;;;;;9.15;4.60;;;9.30;99.90;;;;;;5051987;28;20059;-59
2022/12/20 03:27:24;;;;;;;10.65;4.68;;;9.30;99.90;;;;;;5052987;28;20084;-57
2022/12/20 03:29:51;;;;;;;10.32;5.10;;;9.30;99.90;;;;;;5053360;28;20057;-58
2022/12/20 03:32:18;;;;;;;11.45;4.70;;;9.30;99.90;;;;;;5051943;28;20472;-58
2022/12/20 03:34:45;;;;;;;8.52;5.25;;;9.30;99.90;;;;;;5053160;28;20085;-54
2022/12/20 03:37:12;;;;;;;9.60;4.75;;;9.30;99.90;;;;;;5052297;28;20390;-57
2022/12/20 03:39:40;;;;;;;8.25;4.85;;;9.30;99.90;;;;;;5053495;28;20099;-57
2022/12/20 03:42:07;;;;;;;7.78;4.28;;;9.30;99.90;;;;;;5053501;28;20057;-52
2022/12/20 03:44:33;;;;;;;10.07;5.03;;;9.30;99.90;;;;;;5052676;28;20063;-55
2022/12/20 03:47:00;;;;;;;8.00;4.50;;;9.30;99.90;;;;;;5049192;28;20063;-54
2022/12/20 03:49:27;;;;;;;5.68;4.45;;;9.30;99.90;;;;;;5052779;28;20131;-55
2022/12/20 03:51:54;;;;;;;6.75;4.90;;;9.30;99.90;;;;;;5050679;28;20470;-56
2022/12/20 03:54:21;;;;;;;8.10;4.82;;;9.30;99.90;;;;;;5052307;28;20503;-56
2022/12/20 03:56:49;;;;;;;6.22;4.38;;;9.30;99.90;;;;;;5051296;28;20561;-53
2022/12/20 03:59:16;;;;;;;9.80;4.28;;;9.30;99.90;;;;;;5051051;28;20128;-55
2022/12/20 04:01:42;;;;;;;7.43;4.70;;;9.30;99.90;;;;;;5052269;28;20119;-54
2022/12/20 04:04:10;;;;;;;11.98;5.30;;;9.40;99.90;;;;;;5051170;28;20056;-54
2022/12/20 04:06:36;;;;;;;7.28;4.68;;;9.30;99.90;;;;;;5052762;28;20053;-49
2022/12/20 04:09:03;;;;;;;8.70;4.68;;;9.30;99.90;;;;;;5051380;28;20492;-51
2022/12/20 04:11:30;;;;;;;8.35;5.05;;;9.30;99.90;;;;;;5053112;28;20107;-53
2022/12/20 04:13:58;;;;;;;7.78;5.25;;;9.30;99.90;;;;;;5051991;28;20041;-54
2022/12/20 04:16:26;;;;;;;11.50;5.35;;;9.40;99.90;;;;;;5052928;28;20088;-50
2022/12/20 04:18:53;;;;;;;9.32;5.50;;;9.30;99.90;;;;;;5052309;28;20069;-46
2022/12/20 04:21:23;;;;;;;7.50;5.35;;;9.40;99.90;;;;;;5052114;28;20107;-50
2022/12/20 04:23:50;;;;;;;7.50;5.55;;;9.40;99.90;;;;;;5048940;28;20459;-47
2022/12/20 04:26:17;;;;;;;11.85;6.00;;;9.40;99.90;;;;;;5042035;28;20053;-43
2022/12/20 04:28:43;;;;;;;9.65;5.68;;;9.40;99.90;;;;;;5035654;28;20148;-46
2022/12/20 04:31:12;;;;;;;7.72;5.53;;;9.40;99.90;;;;;;5049788;28;20108;-50
2022/12/20 04:33:39;;;;;;;10.30;5.50;;;9.40;99.90;;;;;;5051800;28;20060;-50
2022/12/20 04:36:06;;;;;;;8.70;5.63;;;9.40;99.90;;;;;;5049754;28;20465;-40
2022/12/20 04:38:33;;;;;;;10.32;5.50;;;9.40;99.90;;;;;;5040737;28;20584;-47
2022/12/20 04:40:59;;;;;;;7.70;5.07;;;9.40;99.90;;;;;;5049523;28;20544;-46
2022/12/20 04:43:26;;;;;;;8.32;5.43;;;9.40;99.90;;;;;;5048222;28;20049;-49
2022/12/20 04:45:55;;;;;;;10.57;5.50;;;9.50;99.90;;;;;;5051916;28;20053;-49
2022/12/20 04:48:24;;;;;;;12.85;5.72;;;9.40;99.90;;;;;;5051658;28;20071;-50
2022/12/20 04:50:51;;;;;;;8.05;5.32;;;9.40;99.90;;;;;;5051449;28;20059;-46
2022/12/20 04:56:02;;;;;;;8.18;4.97;;;9.50;99.90;;;;;;5049666;28;20057;-46
2022/12/20 04:58:29;;;;;;;7.72;5.15;;;9.60;99.90;;;;;;5044420;28;20076;-47
2022/12/20 05:00:55;;;;;;;7.97;5.13;;;9.50;99.90;;;;;;5036870;28;20045;-43
2022/12/20 05:03:24;;;;;;;10.63;4.93;;;9.60;99.90;;;;;;5048973;28;20337;-45
2022/12/20 05:05:51;;;;;;;8.32;5.03;;;9.60;99.90;;;;;;5048787;28;20539;-51
2022/12/20 05:08:18;;;;;;;10.40;5.00;;;9.70;99.90;;;;;;5047867;28;20141;-49
2022/12/20 05:10:45;;;;;;;9.35;4.95;;;9.70;99.90;;;;;;5047820;28;20560;-47
2022/12/20 05:13:11;;;;;;;7.38;4.75;;;9.70;99.90;;;;;;5050144;28;20077;-50
2022/12/20 05:15:38;;;;;;;10.30;4.72;;;9.70;99.90;;;;;;5051112;28;20136;-51
2022/12/20 05:18:05;;;;;;;8.38;4.85;;;9.70;99.90;;;;;;5050567;28;20091;-47
2022/12/20 05:20:33;;;;;;;10.70;4.97;;;9.70;99.90;;;;;;5046675;28;20572;-48
2022/12/20 05:28:32;;;;;;;9.20;4.65;;;9.70;99.90;;;;;;5050132;28;20127;-46
2022/12/20 05:30:59;;;;;;;7.90;4.53;;;9.80;99.90;;;;;;5050233;28;20094;-47
2022/12/20 05:33:26;;;;;;;6.43;4.63;;;9.80;99.90;;;;;;5051869;28;20455;-48
2022/12/20 05:35:54;;;;;;;7.32;4.25;;;9.80;99.90;;;;;;5048500;28;20133;-46
2022/12/20 05:38:21;;;;;;;7.75;4.40;;;9.80;99.90;;;;;;5044477;28;20476;-43
2022/12/20 05:40:48;;;;;;;6.45;4.22;;;9.80;99.90;;;;;;5049743;28;20102;-49
2022/12/20 05:43:15;;;;;;;6.72;4.22;;;9.80;99.90;;;;;;5051809;28;20041;-49
2022/12/20 05:45:46;;;;;;;7.78;4.22;;;9.80;99.90;;;;;;5050679;28;20052;-47
2022/12/20 05:48:12;;;;;;;7.43;4.23;;;9.90;99.90;;;;;;5054640;28;20052;-50
2022/12/20 05:50:39;;;;;;;6.68;4.30;;;9.90;99.90;;;;;;5053331;28;20505;-49
2022/12/20 05:53:07;;;;;;;9.73;4.13;;;9.90;99.90;;;;;;5054695;28;20472;-48
2022/12/20 05:55:34;;;;;;;7.43;4.25;;;9.90;99.90;;;;;;5054888;28;20052;-50
2022/12/20 05:58:01;;;;;;;5.90;4.13;;;9.90;99.90;;;;;;5055188;28;20546;-45
2022/12/20 06:00:28;;;;;;;7.75;4.22;;;9.90;99.90;;;;;;5052742;28;20130;-48
2022/12/20 06:02:55;;;;;;;7.03;4.28;;;10.00;99.90;;;;;;5053285;28;20167;-49
2022/12/20 06:05:21;;;;;;;11.43;4.03;;;9.90;99.90;;;;;;5054517;28;20072;-42
2022/12/20 06:07:49;;;;;;;7.40;4.50;;;9.90;99.90;;;;;;5054416;28;20149;-47
2022/12/20 06:10:17;;;;;;;7.05;3.90;;;9.90;99.90;;;;;;5055004;28;20516;-49
2022/12/20 06:12:44;;;;;;;6.50;3.65;;;9.90;99.90;;;;;;5053437;28;20052;-51
2022/12/20 06:15:12;;;;;;;7.20;4.05;;;10.00;99.90;;;;;;5054060;28;20087;-46
2022/12/20 06:17:39;;;;;;;6.63;3.92;;;10.00;99.90;;;;;;5051358;28;20045;-47
2022/12/20 06:20:07;;;;;;;5.97;4.13;;;10.00;99.90;;;;;;5050635;28;20812;-42
2022/12/20 06:22:36;;;;;;;6.55;4.60;;;10.00;99.90;;;;;;5055779;28;20067;-44
2022/12/20 06:25:03;;;;;;;11.82;4.50;;;10.10;99.90;;;;;;5054217;28;20194;-48
2022/12/20 06:27:32;;;;;;;6.45;4.03;;;10.10;99.90;;;;;;5055167;28;20057;-48
2022/12/20 06:29:58;;;;;;;6.65;4.05;;;10.20;99.90;;;;;;5054103;28;20064;-50
2022/12/20 06:32:25;;;;;;;6.15;4.05;;;10.20;99.90;;;;;;5053842;28;20040;-50
2022/12/20 06:34:52;;;;;;;8.02;4.35;;;10.20;99.90;;;;;;5052706;28;20062;-55
2022/12/20 06:37:19;;;;;;;7.75;4.55;;;10.20;99.90;;;;;;5046000;28;20045;-57
2022/12/20 06:39:46;;;;;;;5.90;4.30;;;10.20;99.90;;;;;;5053882;28;20114;-53
2022/12/20 06:42:13;;;;;;;7.88;4.43;;;10.20;99.90;;;;;;5053864;28;20469;-56
2022/12/20 06:44:41;;;;;;;6.70;4.20;;;10.20;99.90;;;;;;5052659;28;20512;-57
2022/12/20 06:47:08;;;;;;;8.45;5.30;;;10.20;99.90;;;;;;5052204;28;20071;-57
2022/12/20 06:49:35;;;;;;;10.85;5.20;;;10.20;99.90;;;;;;5055231;28;20060;-51
2022/12/20 06:52:02;;;;;;;6.97;4.53;;;10.20;99.90;;;;;;5052905;28;20412;-54
2022/12/20 06:54:29;;;;;;;8.73;5.15;;;10.10;99.90;;;;;;5053357;28;20098;-53
2022/12/20 06:56:56;;;;;;;11.00;5.57;;;10.10;99.90;;;;;;5052015;28;20052;-51
2022/12/20 06:59:23;;;;;;;10.52;6.03;;;10.20;99.90;;;;;;5048432;28;20402;-57
2022/12/20 07:01:51;;;;;;;9.52;6.40;;;10.20;99.90;;;;;;5050993;28;20056;-54
2022/12/20 07:04:18;;;;;;;9.93;6.03;;;10.10;99.90;;;;;;5052747;28;20049;-55
2022/12/20 07:06:45;;;;;;;12.63;6.40;;;10.10;99.90;;;;;;5051215;28;20135;-52
2022/12/20 07:09:12;;;;;;;10.68;6.32;;;10.10;99.90;;;;;;5051403;28;20444;-54
2022/12/20 07:11:39;;;;;;;8.57;6.07;;;10.10;99.90;;;;;;5052327;28;20103;-53
2022/12/20 07:14:06;;;;;;;11.25;6.57;;;10.10;99.90;;;;;;5051271;28;20045;-45
2022/12/20 07:16:33;;;;;;;10.75;6.18;;;10.10;99.90;;;;;;5050986;28;20056;-53
2022/12/20 07:19:01;;;;;;;7.65;6.15;;;10.10;99.90;;;;;;5053267;28;20131;-53
2022/12/20 07:21:28;;;;;;;8.90;6.30;;;10.10;99.90;;;;;;5050778;28;20085;-51
2022/12/20 07:23:55;;;;;;;11.10;6.60;;;10.10;99.90;;;;;;5048157;28;20052;-49
2022/12/20 07:26:22;;;;;;;10.48;6.55;;;10.10;99.90;;;;;;5053080;28;20051;-49
2022/12/20 07:28:49;;;;;;;10.98;6.43;;;10.20;99.90;;;;;;5047714;28;20061;-53
2022/12/20 07:31:16;;;;;;;11.50;5.90;;;10.10;99.90;;;;;;5041434;28;20045;-51
2022/12/20 07:33:43;;;;;;;10.43;6.50;;;10.20;99.90;;;;;;5043322;28;20041;-51
2022/12/20 07:36:12;;;;;;;11.52;6.00;;;10.20;99.90;;;;;;5052680;28;20064;-51
2022/12/20 07:38:39;;;;;;;11.52;6.10;;;10.20;99.90;;;;;;5053000;28;20102;-48
2022/12/20 07:41:07;;;;;;;10.52;6.40;;;10.10;99.90;;;;;;5052809;28;20053;-49
2022/12/20 07:43:34;;;;;;;11.88;6.32;;;10.10;99.90;;;;;;5052638;28;20315;-52
2022/12/20 07:46:02;;;;;;;10.18;6.30;;;10.20;99.90;;;;;;5051021;28;20068;-48
2022/12/20 07:48:29;;;;;;;12.07;6.65;;;10.20;99.90;;;;;;5052045;28;20092;-45
2022/12/20 07:50:57;;;;;;;9.38;6.18;;;10.20;99.90;;;;;;5052560;28;20071;-50
2022/12/20 07:53:25;;;;;;;10.27;5.85;;;10.20;99.90;;;;;;5052646;28;20057;-51
2022/12/20 07:55:52;;;;;;;9.73;5.80;;;10.20;99.90;;;;;;5052466;28;20519;-48
2022/12/20 07:58:19;;;;;;;8.35;5.90;;;10.20;99.90;;;;;;5051275;28;20057;-50
2022/12/20 08:00:46;;;;;;;10.77;6.82;;;10.20;99.90;;;;;;5053159;28;20045;-51
2022/12/20 08:03:15;;;;;;;9.65;6.45;;;10.20;99.90;;;;;;5051198;28;20500;-49
2022/12/20 08:05:43;;;;;;;10.07;5.90;;;10.20;99.90;;;;;;5053937;28;20068;-44
2022/12/20 08:08:10;;;;;;;8.55;5.80;;;10.20;99.90;;;;;;5046734;28;20493;-51
2022/12/20 08:10:38;;;;;;;7.47;5.40;;;10.20;99.90;;;;;;5044187;28;20061;-45
2022/12/20 08:13:05;;;;;;;12.52;5.57;;;10.20;99.90;;;;;;5047973;28;20064;-45
2022/12/20 08:15:33;;;;;;;11.93;4.68;;;10.20;99.90;;;;;;5049773;28;20057;-48
2022/12/20 08:18:00;;;;;;;8.13;4.60;;;10.30;99.90;;;;;;5050801;28;20049;-44
2022/12/20 08:20:27;;;;;;;10.68;4.60;;;10.20;99.90;;;;;;5050345;28;20139;-43
2022/12/20 08:22:54;;;;;;;6.97;4.60;;;10.30;99.90;;;;;;5050161;28;20087;-50
2022/12/20 08:25:21;;;;;;;11.93;4.50;;;10.30;99.90;;;;;;5051496;28;20053;-51
2022/12/20 08:27:49;;;;;;;9.35;4.63;;;10.30;99.90;;;;;;5050792;28;20076;-48
2022/12/20 08:30:17;;;;;;;6.45;4.32;;;10.40;99.90;;;;;;5047862;28;20042;-51
2022/12/20 08:32:44;;;;;;;8.15;4.30;;;10.40;99.90;;;;;;5050822;28;20044;-53
2022/12/20 08:35:11;;;;;;;8.13;4.55;;;10.40;99.90;;;;;;5043875;28;20501;-47
2022/12/20 08:37:38;;;;;;;8.05;4.28;;;10.40;99.90;;;;;;5043605;28;20500;-53
2022/12/20 08:40:07;;;;;;;8.13;4.15;;;10.40;99.90;;;;;;5043878;28;20501;-54
2022/12/20 08:42:34;;;;;;;7.47;4.85;;;10.40;99.90;;;;;;5049785;28;20123;-53
2022/12/20 08:45:02;;;;;;;6.65;5.00;;;10.40;99.90;;;;;;5051750;28;20045;-54
2022/12/20 08:47:29;;;;;;;7.07;4.00;;;10.40;99.90;;;;;;5034400;28;20539;-53
2022/12/20 08:49:56;;;;;;;12.45;4.65;;;10.40;99.90;;;;;;5047483;28;20063;-53
2022/12/20 08:52:23;;;;;;;6.55;3.90;;;10.40;99.90;;;;;;5050591;28;20452;-53
2022/12/20 08:54:50;;;;;;;7.25;3.80;;;10.40;99.90;;;;;;5051708;28;20049;-49
2022/12/20 08:57:17;;;;;;;7.55;4.10;;;10.50;99.90;;;;;;5048372;28;20056;-52
2022/12/20 08:59:44;;;;;;;6.40;3.85;;;10.40;99.90;;;;;;5050276;28;20049;-50
2022/12/20 09:02:12;;;;;;;5.47;3.63;;;10.40;99.90;;;;;;5051940;28;20096;-53
2022/12/20 09:04:39;;;;;;;4.30;3.00;;;10.50;99.90;;;;;;5048694;28;20061;-52
2022/12/20 09:07:06;;;;;;;7.20;3.90;;;10.50;99.90;;;;;;5047750;28;20393;-42
2022/12/20 09:09:33;;;;;;;8.48;3.88;;;10.50;99.90;;;;;;5043275;28;20041;-45
2022/12/20 09:12:00;;;;;;;8.68;4.10;;;10.50;99.90;;;;;;5045634;28;20056;-54
2022/12/20 09:14:27;;;;;;;5.93;3.80;;;10.50;99.90;;;;;;5039066;28;20065;-49
2022/12/20 09:16:54;;;;;;;10.38;4.70;;;10.40;99.90;;;;;;5047953;28;20048;-52
2022/12/20 09:19:22;;;;;;;12.35;5.72;;;10.50;99.90;;;;;;5048961;28;20052;-48
2022/12/20 09:21:54;;;;;;;9.52;4.55;;;10.50;99.90;;;;;;5047745;28;20045;-47
2022/12/20 09:24:21;;;;;;;7.63;4.47;;;10.50;99.90;;;;;;5048307;28;20045;-52
2022/12/20 09:26:48;;;;;;;6.43;3.95;;;10.50;99.90;;;;;;5050346;28;20041;-49
2022/12/20 09:29:14;;;;;;;9.10;5.65;;;10.50;99.90;;;;;;5048969;28;20051;-55
2022/12/20 09:31:42;;;;;;;8.30;4.40;;;10.50;99.90;;;;;;5044970;28;20045;-47
2022/12/20 09:34:09;;;;;;;8.13;3.97;;;10.50;99.90;;;;;;5051449;28;20052;-48
2022/12/20 09:36:38;;;;;;;6.07;3.60;;;10.50;99.90;;;;;;5036193;28;20148;-52
2022/12/20 09:39:05;;;;;;;7.53;3.80;;;10.50;99.90;;;;;;5041425;28;20135;-45
2022/12/20 09:41:33;;;;;;;6.50;4.20;;;10.50;99.90;;;;;;5051488;28;20061;-51
2022/12/20 09:44:03;;;;;;;7.82;3.60;;;10.60;99.90;;;;;;5045488;28;20052;-52
2022/12/20 09:46:30;;;;;;;7.28;4.15;;;10.60;99.90;;;;;;5033439;28;20049;-51
2022/12/20 09:48:57;;;;;;;8.45;4.40;;;10.60;99.90;;;;;;5031419;28;20052;-47
2022/12/20 09:51:46;;;;;;;8.15;3.92;;;10.50;99.90;;;;;;5046824;28;20111;-53
2022/12/20 09:54:18;;;;;;;5.97;3.20;;;10.50;99.90;;;;;;5049624;28;20455;-51
2022/12/20 09:56:45;;;;;;;;;;;10.50;99.90;;;;;;5049787;28;20119;-49
2022/12/20 09:59:13;;;;;;;14.32;5.75;;;10.40;99.90;;;;;;5049764;28;19921;-52
2022/12/20 10:01:42;;;;;;;8.50;4.97;;;10.50;99.90;;;;;;5048176;28;20060;-44
2022/12/20 10:04:15;;;;;;;8.23;4.35;;;10.50;99.90;;;;;;5047904;28;20060;-54
2022/12/20 10:06:47;;;;;;;7.65;4.30;;;10.40;99.90;;;;;;5046819;28;20052;-51
2022/12/20 10:09:23;;;;;;;8.55;5.00;;;10.40;99.90;;;;;;5031923;28;20099;-57
2022/12/20 10:11:57;;;;;;;6.45;3.72;;;10.40;99.90;;;;;;5036807;28;20072;-55
2022/12/20 10:14:36;;;;;;;8.38;3.70;;;10.40;99.90;;;;;;5049722;28;20448;-53
2022/12/20 10:17:04;;;;;;;7.60;4.05;;;10.40;99.90;;;;;;5033415;28;20089;-56
2022/12/20 10:19:54;;;;;;;7.70;4.10;;;10.40;99.90;;;;;;5047453;28;20052;-54
2022/12/20 10:22:25;;;;;;;8.23;3.80;;;10.40;99.90;;;;;;5042884;28;20493;-54
2022/12/20 10:24:58;;;;;;;7.32;3.90;;;10.40;99.90;;;;;;5046032;28;20412;-61
2022/12/20 10:27:25;;;;;;;9.70;4.05;;;10.40;99.90;;;;;;5047512;28;20049;-58
2022/12/20 10:29:52;;;;;;;7.70;4.03;;;10.40;99.90;;;;;;5043669;28;20103;-58
2022/12/20 10:32:21;;;;;;;9.25;4.18;;;10.30;99.90;;;;;;5042379;28;20056;-49
2022/12/20 10:34:52;;;;;;;9.73;3.85;;;10.30;99.90;;;;;;5051517;28;20178;-56
2022/12/20 10:37:19;;;;;;;7.38;4.00;;;10.30;99.90;;;;;;5053364;28;20516;-50
2022/12/20 10:39:49;;;;;;;11.02;4.55;;;10.30;99.90;;;;;;5050148;28;20051;-53
2022/12/20 10:42:27;;;;;;;9.18;4.38;;;10.30;99.90;;;;;;5050167;28;20068;-55
2022/12/20 10:44:54;;;;;;;6.85;4.43;;;10.30;99.90;;;;;;5047686;28;20064;-50
2022/12/20 10:47:25;;;;;;;9.15;5.68;;;10.30;99.90;;;;;;5051980;28;20053;-62
2022/12/20 10:49:52;;;;;;;10.82;4.35;;;10.30;99.90;;;;;;5049640;28;20087;-61
2022/12/20 10:52:19;;;;;;;13.10;5.22;;;10.30;99.90;;;;;;5052603;28;20449;-44
2022/12/20 10:54:46;;;;;;;8.20;5.15;;;10.30;99.90;;;;;;5047369;28;20049;-56
2022/12/20 10:57:18;;;;;;;7.13;4.25;;;10.30;99.90;;;;;;5048508;28;20072;-56
2022/12/20 10:59:47;;;;;;;9.05;5.13;;;10.30;99.90;;;;;;5049010;28;20041;-56
2022/12/20 11:02:25;;;;;;;8.55;4.20;;;10.30;99.90;;;;;;5052288;28;20409;-55
2022/12/20 11:04:58;;;;;;;9.50;4.32;;;10.30;99.90;;;;;;5049330;28;20043;-55
2022/12/20 11:07:26;;;;;;;8.57;4.63;;;10.30;99.90;;;;;;5054285;28;20053;-50
2022/12/20 11:09:54;;;;;;;8.35;4.68;;;10.30;99.90;;;;;;5050972;28;20037;-55
2022/12/20 11:12:22;;;;;;;7.90;4.78;;;10.30;99.90;;;;;;5051930;28;20064;-55
2022/12/20 11:14:49;;;;;;;16.73;5.95;;;10.30;99.90;;;;;;5051600;28;20044;-56
2022/12/20 11:17:24;;;;;;;7.22;4.38;;;10.30;99.90;;;;;;5050187;28;20485;-57
2022/12/20 11:20:24;;;;;;;10.77;5.10;;;10.30;99.90;;;;;;5065204;28;20493;-54
2022/12/20 11:22:55;;;;;;;9.88;4.55;;;10.40;99.90;;;;;;5038693;28;20052;-56
2022/12/20 11:25:31;;;;;;;7.35;4.30;;;10.30;99.90;;;;;;5045874;28;20059;-56
2022/12/20 11:28:10;;;;;;;9.48;5.25;;;10.40;99.90;;;;;;5046453;28;20386;-56
2022/12/20 11:30:40;;;;;;;9.55;4.95;;;10.40;99.90;;;;;;5050147;28;20049;-55
2022/12/20 11:33:35;;;;;;;8.15;5.10;;;10.40;99.90;;;;;;5049738;28;20056;-52
2022/12/20 11:36:03;;;;;;;9.00;4.38;;;10.40;99.90;;;;;;5051599;28;20511;-56
2022/12/20 11:38:38;;;;;;;6.38;4.40;;;10.40;99.90;;;;;;5052605;28;20045;-55
2022/12/20 11:41:11;;;;;;;7.75;4.15;;;10.40;99.90;;;;;;5047204;28;20049;-55
2022/12/20 11:43:51;;;;;;;7.20;4.60;;;10.40;99.90;;;;;;5047324;28;20559;-49
2022/12/20 11:46:25;;;;;;;6.95;4.50;;;10.40;99.90;;;;;;5037652;28;20103;-54
2022/12/20 11:49:03;;;;;;;10.15;6.72;;;10.40;99.90;;;;;;5051174;28;20064;-55
2022/12/20 11:51:33;;;;;;;11.07;4.55;;;10.40;99.90;;;;;;5051522;28;20393;-55
2022/12/20 11:54:01;;;;;;;7.00;4.35;;;10.40;99.90;;;;;;5052705;28;20385;-50
2022/12/20 11:56:31;;;;;;;7.60;4.20;;;10.50;99.90;;;;;;5051262;28;20152;-48
2022/12/20 11:59:02;;;;;;;7.90;4.35;;;10.50;99.90;;;;;;5047216;28;20128;-56
2022/12/20 12:01:31;;;;;;;8.07;4.32;;;10.50;99.90;;;;;;5047007;28;20079;-56
2022/12/20 12:04:08;;;;;;;6.45;4.00;;;10.50;99.90;;;;;;5050410;28;20240;-55
2022/12/20 12:06:37;;;;;;;9.45;4.88;;;10.50;99.90;;;;;;5049279;28;20393;-48
2022/12/20 12:09:09;;;;;;;7.82;4.15;;;10.50;99.90;;;;;;5049213;28;20064;-54
2022/12/20 12:11:38;;;;;;;6.43;4.28;;;10.50;99.90;;;;;;5039006;28;20091;-51
2022/12/20 12:14:10;;;;;;;8.55;4.35;;;10.50;99.90;;;;;;5049871;28;20037;-51
2022/12/20 12:16:39;;;;;;;9.38;4.47;;;10.50;99.90;;;;;;5050793;28;20080;-55
2022/12/20 12:19:08;;;;;;;6.45;4.22;;;10.50;99.90;;;;;;5049780;28;20044;-55
2022/12/20 12:21:37;;;;;;;8.60;5.82;;;10.50;99.90;;;;;;5043160;28;20048;-56
2022/12/20 12:24:05;;;;;;;9.23;6.00;;;10.50;99.90;;;;;;5047128;28;20060;-56
2022/12/20 12:26:34;;;;;;;10.75;5.25;;;10.50;99.90;;;;;;5051286;28;20063;-57
2022/12/20 12:29:03;;;;;;;8.68;5.32;;;10.50;99.90;;;;;;5052471;28;20049;-55
2022/12/20 12:31:34;;;;;;;8.52;4.82;;;10.40;99.90;;;;;;5046921;28;20060;-51
2022/12/20 12:34:07;;;;;;;9.48;4.88;;;10.40;99.90;;;;;;5050499;28;20060;-56
2022/12/20 12:37:28;;;;;;;8.63;5.00;;;10.40;99.90;;;;;;5049884;28;20053;-55
2022/12/20 12:40:12;;;;;;;6.03;4.80;;;10.50;99.90;;;;;;5006850;28;20046;-55
2022/12/20 12:43:12;;;;;;;7.03;5.30;;;10.40;99.90;;;;;;4992339;28;20064;-55
2022/12/20 12:45:42;;;;;;;10.70;7.55;;;10.40;99.90;;;;;;5047620;28;20049;-53
2022/12/20 12:48:15;;;;;;;8.85;5.50;;;10.40;99.90;;;;;;5048588;28;20057;-48
2022/12/20 12:50:44;;;;;;;9.52;5.57;;;10.40;99.90;;;;;;5051188;28;20056;-52
2022/12/20 12:53:13;;;;;;;8.32;4.72;;;10.40;99.90;;;;;;5031979;28;20045;-48
2022/12/20 12:55:42;;;;;;;9.73;5.40;;;10.40;99.90;;;;;;5041640;28;20080;-49
2022/12/20 12:58:32;;;;;;;10.88;5.68;;;10.40;99.90;;;;;;5043179;28;20056;-46
2022/12/20 13:00:59;;;;;;;9.02;5.90;;;10.40;99.90;;;;;;5047581;28;20106;-52
2022/12/20 13:03:41;;;;;;;7.88;5.28;;;10.40;99.90;;;;;;5051248;28;20048;-54
2022/12/20 13:06:34;;;;;;;;;;;10.40;99.90;;;;;;5048133;28;20049;-53
2022/12/20 13:09:17;;;;;;;12.48;6.07;;;10.40;99.90;;;;;;4965099;28;19926;-50
2022/12/20 13:11:44;;;;;;;8.95;5.57;;;10.40;99.90;;;;;;5050456;28;20489;-52